Fort McMurray Airport
CYMM : now visible

Airfield :











YOU CAN JOIN US ON...

 
LOGIN :

Register | Disclaimer

   EN    FR    IT 

 









Legend :    VFR   Marginal VFR   IFR   Intensive IFR   Very Intensive IFR
Visi :
Ceiling :
>= 8 km
>= 3000ft
5 to 8 km
1000 to 3000 ft
1500m to 5 km
500 to 1000 ft
800 to 1500m
200 to 500 ft
< 800m
< 200 ft
Symbols :   Thunderstorms  Fog  Heavy snow  Heavy precipitations  Wind > 20 kt






- Airport Elevation : 1211 ft
- IATA code : YMM


CYMM - Fort McMurray

CURRENT METAR :
  • 210000Z AUTO 10007KT 9SM FEW210 BKN250 M11/M15 A2963 RMK SLP069

EXPIRED METARs :
  • 202300Z AUTO 08005KT 9SM OVC110 M11/M15 A2967 RMK SLP082
  • 202200Z AUTO 11007KT 9SM BKN100 OVC120 M11/M15 A2972 RMK SLP099

TAF TAF CYMM
Valid from the 20 at 19:00 until the 21 at 07:00 UTC


201838Z 2019/2107 08006KT P6SM BKN240
FM202100 10005KT P6SM SCT120 BKN240 RMK FCST BASED ON AUTO OBS. NXT FCST BY 210100Z



MET'MAP, your aeronautical weather chart ! - Copyright ORBIFLY December 2007 - Disclaimer

ORBIFLY MET'MAP TEAM :

Programming & Development : Alexandra Zaïnal
Concept & original design : Baudouin d'Aumeries
Assistance for programming : Marc-Olivier Méhu
Technical & hardware support : Manuel Goepfert

Contact : metmap@orbifly.com




SOURCES & CREDITS :

   NOAA       Earth
Advisory